• Join FlightAware (Why Join?)
  • Login
  • US Flag 
05:50AM EDT


 

Airport Tracker/Info


-or-


 

Live Flight TrackerFlight Track Log ✈ D-AIMA ✈ 15-Apr-2013 ✈ ZBAA / PEK - EDDF / FRA

Flight Track Log - Related Links

Times and Time Zones

All times are in EDT time to prevent confusion due to time zone crossing. See the D-AIMA flight status page for this flight to view local times or setup timezone preferences in your user account.

Time Position Orientation Groundspeed Altitude Reporting Facility
EDT Latitude Longitude Course Direction KTS MPH feet Rate Location/Type
10:43PM 40.4472 116.1713 319° Northwest  Level Estimated
10:44PM 40.5387 116.0673 319° Northwest  Level Estimated
10:45PM 40.6302 115.9630 319° Northwest  Level Estimated
10:46PM 40.7215 115.8584 319° Northwest  Level Estimated
10:47PM 40.8128 115.7536 319° Northwest  Level Estimated
10:48PM 40.9039 115.6484 319° Northwest  Level Estimated
10:49PM 40.9950 115.5430 319° Northwest  Level Estimated
10:50PM 41.0860 115.4372 319° Northwest  Level Estimated
10:51PM 41.1769 115.3312 319° Northwest  Level Estimated
10:52PM 41.2676 115.2249 319° Northwest  Level Estimated
10:53PM 41.3583 115.1182 319° Northwest  Level Estimated
10:54PM 41.4489 115.0113 319° Northwest  Level Estimated
10:55PM 41.5394 114.9041 318° Northwest  Level Estimated
10:56PM 41.6298 114.7966 318° Northwest  Level Estimated
10:57PM 41.7200 114.6888 318° Northwest  Level Estimated
10:58PM 41.8102 114.5806 318° Northwest  Level Estimated
10:59PM 41.9003 114.4722 318° Northwest  Level Estimated
11:00PM 41.9903 114.3635 318° Northwest  Level Estimated
11:01PM 42.0801 114.2544 318° Northwest  Level Estimated
11:02PM 42.1699 114.1451 318° Northwest  Level Estimated
11:03PM 42.2596 114.0354 318° Northwest  Level Estimated
11:04PM 42.3491 113.9255 318° Northwest  Level Estimated
11:05PM 42.4386 113.8152 318° Northwest  Level Estimated
11:06PM 42.5279 113.7046 318° Northwest  Level Estimated
11:07PM 42.6172 113.5936 318° Northwest  Level Estimated
11:08PM 42.7063 113.4824 317° Northwest  Level Estimated
11:09PM 42.7953 113.3708 317° Northwest  Level Estimated
11:10PM 42.8843 113.2590 317° Northwest  Level Estimated
11:11PM 42.9731 113.1468 317° Northwest  Level Estimated
11:12PM 43.0618 113.0342 317° Northwest  Level Estimated
11:13PM 43.1503 112.9214 317° Northwest  Level Estimated
11:14PM 43.2388 112.8082 317° Northwest  Level Estimated
11:15PM 43.3272 112.6947 317° Northwest  Level Estimated
11:16PM 43.4154 112.5808 317° Northwest  Level Estimated
11:17PM 43.5036 112.4667 317° Northwest  Level Estimated
11:18PM 43.5916 112.3522 317° Northwest  Level Estimated
11:19PM 43.6795 112.2373 317° Northwest  Level Estimated
11:20PM 43.7673 112.1222 317° Northwest  Level Estimated
11:21PM 43.8550 112.0066 316° Northwest  Level Estimated
11:22PM 43.9425 111.8908 316° Northwest  Level Estimated
11:23PM 44.0300 111.7746 316° Northwest  Level Estimated
11:24PM 44.1173 111.6580 316° Northwest  Level Estimated
11:25PM 44.2045 111.5412 316° Northwest  Level Estimated
11:26PM 44.2916 111.4239 316° Northwest  Level Estimated
11:27PM 44.3786 111.3064 316° Northwest  Level Estimated
11:28PM 44.4654 111.1884 316° Northwest  Level Estimated
11:29PM 44.5522 111.0701 316° Northwest  Level Estimated
11:30PM 44.6387 110.9515 316° Northwest  Level Estimated
11:31PM 44.7252 110.8325 316° Northwest  Level Estimated
11:32PM 44.8116 110.7132 316° Northwest  Level Estimated
11:33PM 44.8978 110.5935 316° Northwest  Level Estimated
11:34PM 44.9839 110.4734 315° West  Level Estimated
11:35PM 45.0699 110.3530 315° West  Level Estimated
11:36PM 45.1558 110.2322 315° West  Level Estimated
11:37PM 45.2415 110.1111 315° West  Level Estimated
11:38PM 45.3271 109.9896 315° West  Level Estimated
11:39PM 45.4126 109.8677 315° West  Level Estimated
11:40PM 45.4979 109.7454 315° West  Level Estimated
11:41PM 45.5831 109.6228 315° West  Level Estimated
11:42PM 45.6682 109.4998 315° West  Level Estimated
11:43PM 45.7531 109.3764 315° West  Level Estimated
11:44PM 45.8379 109.2527 315° West  Level Estimated
11:45PM 45.9226 109.1286 314° West  Level Estimated
11:46PM 46.0071 109.0041 314° West  Level Estimated
11:47PM 46.0915 108.8792 314° West  Level Estimated
11:48PM 46.1758 108.7540 314° West  Level Estimated
11:49PM 46.2599 108.6283 314° West  Level Estimated
11:50PM 46.3439 108.5023 314° West  Level Estimated
11:51PM 46.4278 108.3758 314° West  Level Estimated
11:52PM 46.5115 108.2490 314° West  Level Estimated
11:53PM 46.5951 108.1218 314° West  Level Estimated
11:54PM 46.6785 107.9942 314° West  Level Estimated
11:55PM 46.7618 107.8663 314° West  Level Estimated
11:56PM 46.8449 107.7379 313° West  Level Estimated
11:57PM 46.9279 107.6091 313° West  Level Estimated
11:58PM 47.0108 107.4799 313° West  Level Estimated
11:59PM 47.0935 107.3503 313° West  Level Estimated
12:00AM 47.1761 107.2204 313° West  Level Estimated
12:01AM 47.2585 107.0900 313° West  Level Estimated
12:02AM 47.3408 106.9592 313° West  Level Estimated
12:03AM 47.4229 106.8280 313° West  Level Estimated
12:04AM 47.5048 106.6964 313° West  Level Estimated
12:05AM 47.5867 106.5643 313° West  Level Estimated
12:06AM 47.6683 106.4319 313° West  Level Estimated
12:07AM 47.7498 106.2990 312° West  Level Estimated
12:08AM 47.8312 106.1658 312° West  Level Estimated
12:09AM 47.9124 106.0321 312° West  Level Estimated
12:10AM 47.9935 105.8980 312° West  Level Estimated
12:11AM 48.0743 105.7635 312° West  Level Estimated
12:12AM 48.1551 105.6285 312° West  Level Estimated
12:13AM 48.2357 105.4931 312° West  Level Estimated
12:14AM 48.3161 105.3573 312° West  Level Estimated
12:15AM 48.3964 105.2211 312° West  Level Estimated
12:16AM 48.4765 105.0844 312° West  Level Estimated
12:17AM 48.5564 104.9473 311° West  Level Estimated
12:18AM 48.6362 104.8098 311° West  Level Estimated
12:19AM 48.7158 104.6719 311° West  Level Estimated
12:20AM 48.7952 104.5334 311° West  Level Estimated
12:21AM 48.8745 104.3946 311° West  Level Estimated
12:22AM 48.9536 104.2553 311° West  Level Estimated
12:23AM 49.0325 104.1156 311° West  Level Estimated
12:24AM 49.1113 103.9754 311° West  Level Estimated
12:25AM 49.1899 103.8348 311° West  Level Estimated
12:26AM 49.2683 103.6938 310° West  Level Estimated
12:27AM 49.3466 103.5523 310° West  Level Estimated
12:28AM 49.4247 103.4103 310° West  Level Estimated
12:29AM 49.5026 103.2679 310° West  Level Estimated
12:30AM 49.5803 103.1251 310° West  Level Estimated
12:31AM 49.6579 102.9817 310° West  Level Estimated
12:32AM 49.7352 102.8380 310° West  Level Estimated
12:33AM 49.8125 102.6937 310° West  Level Estimated
12:34AM 49.8895 102.5490 310° West  Level Estimated
12:35AM 49.9663 102.4039 309° West  Level Estimated
12:36AM 50.0430 102.2583 309° West  Level Estimated
12:37AM 50.1194 102.1122 309° West  Level Estimated
12:38AM 50.1957 101.9657 309° West  Level Estimated
12:39AM 50.2719 101.8186 309° West  Level Estimated
12:40AM 50.3478 101.6711 309° West  Level Estimated
12:41AM 50.4235 101.5232 309° West  Level Estimated
12:42AM 50.4991 101.3747 309° West  Level Estimated
12:43AM 50.5744 101.2258 309° West  Level Estimated
12:44AM 50.6496 101.0765 308° West  Level Estimated
12:45AM 50.7246 100.9266 308° West  Level Estimated
12:46AM 50.7994 100.7763 308° West  Level Estimated
12:47AM 50.8739 100.6254 308° West  Level Estimated
12:48AM 50.9483 100.4741 308° West  Level Estimated
12:49AM 51.0225 100.3223 308° West  Level Estimated
12:50AM 51.0965 100.1701 308° West  Level Estimated
12:51AM 51.1703 100.0173 308° West  Level Estimated
12:52AM 51.2439 99.8641 308° West  Level Estimated
12:53AM 51.3173 99.7103 307° West  Level Estimated
12:54AM 51.3905 99.5561 307° West  Level Estimated
12:55AM 51.4635 99.4013 307° West  Level Estimated
12:56AM 51.5363 99.2461 307° West  Level Estimated
12:57AM 51.6089 99.0904 307° West  Level Estimated
12:58AM 51.6813 98.9342 307° West  Level Estimated
12:59AM 51.7535 98.7775 307° West  Level Estimated
01:00AM 51.8254 98.6202 307° West  Level Estimated
01:01AM 51.8972 98.4625 306° West  Level Estimated
01:02AM 51.9687 98.3043 306° West  Level Estimated
01:03AM 52.0400 98.1456 306° West  Level Estimated
01:04AM 52.1112 97.9863 306° West  Level Estimated
01:05AM 52.1821 97.8266 306° West  Level Estimated
01:06AM 52.2527 97.6663 306° West  Level Estimated
01:07AM 52.3232 97.5055 306° West  Level Estimated
01:08AM 52.3935 97.3443 306° West  Level Estimated
01:09AM 52.4635 97.1825 305° West  Level Estimated
01:10AM 52.5333 97.0201 305° West  Level Estimated
01:11AM 52.6029 96.8573 305° West  Level Estimated
01:12AM 52.6722 96.6940 305° West  Level Estimated
01:13AM 52.7414 96.5301 305° West  Level Estimated
01:14AM 52.8103 96.3658 305° West  Level Estimated
01:15AM 52.8790 96.2009 305° West  Level Estimated
01:16AM 52.9474 96.0354 305° West  Level Estimated
01:17AM 53.0156 95.8695 304° West  Level Estimated
01:18AM 53.0836 95.7030 304° West  Level Estimated
01:19AM 53.1514 95.5360 304° West  Level Estimated
01:20AM 53.2189 95.3685 304° West  Level Estimated
01:21AM 53.2862 95.2004 304° West  Level Estimated
01:22AM 53.3532 95.0319 304° West  Level Estimated
01:23AM 53.4200 94.8627 304° West  Level Estimated
01:24AM 53.4866 94.6931 303° West  Level Estimated
01:25AM 53.5529 94.5229 303° West  Level Estimated
01:26AM 53.6190 94.3522 303° West  Level Estimated
01:27AM 53.6849 94.1810 303° West  Level Estimated
01:28AM 53.7505 94.0092 303° West  Level Estimated
01:29AM 53.8158 93.8369 303° West  Level Estimated
01:30AM 53.8809 93.6640 303° West  Level Estimated
01:31AM 53.9458 93.4907 302° West  Level Estimated
01:32AM 54.0104 93.3167 302° West  Level Estimated
01:33AM 54.0747 93.1423 302° West  Level Estimated
01:34AM 54.1388 92.9672 302° West  Level Estimated
01:35AM 54.2027 92.7917 302° West  Level Estimated
01:36AM 54.2663 92.6156 302° West  Level Estimated
01:37AM 54.3296 92.4390 302° West  Level Estimated
01:38AM 54.3927 92.2618 301° West  Level Estimated
01:39AM 54.4555 92.0841 301° West  Level Estimated
01:40AM 54.5180 91.9058 301° West  Level Estimated
01:41AM 54.5803 91.7270 301° West  Level Estimated
01:42AM 54.6423 91.5476 301° West  Level Estimated
01:43AM 54.7041 91.3677 301° West  Level Estimated
01:44AM 54.7656 91.1873 301° West  Level Estimated
01:45AM 54.8268 91.0063 300° West  Level Estimated
01:46AM 54.8877 90.8247 300° West  Level Estimated
01:47AM 54.9484 90.6426 300° West  Level Estimated
01:48AM 55.0088 90.4600 300° West  Level Estimated
01:49AM 55.0690 90.2768 300° West  Level Estimated
01:50AM 55.1288 90.0930 300° West  Level Estimated
01:51AM 55.1884 89.9087 300° West  Level Estimated
01:52AM 55.2477 89.7239 299° West  Level Estimated
01:53AM 55.3067 89.5385 299° West  Level Estimated
01:54AM 55.3655 89.3525 299° West  Level Estimated
01:55AM 55.4239 89.1660 299° West  Level Estimated
01:56AM 55.4821 88.9790 299° West  Level Estimated
01:57AM 55.5400 88.7914 299° West  Level Estimated
01:58AM 55.5976 88.6032 299° West  Level Estimated
01:59AM 55.6549 88.4145 298° West  Level Estimated
02:00AM 55.7119 88.2252 298° West  Level Estimated
02:01AM 55.7687 88.0354 298° West  Level Estimated
02:02AM 55.8251 87.8450 298° West  Level Estimated
02:03AM 55.8812 87.6541 298° West  Level Estimated
02:04AM 55.9371 87.4626 298° West  Level Estimated
02:05AM 55.9926 87.2706 297° West  Level Estimated
02:06AM 56.0479 87.0780 297° West  Level Estimated
02:07AM 56.1028 86.8849 297° West  Level Estimated
02:08AM 56.1575 86.6913 297° West  Level Estimated
02:09AM 56.2118 86.4970 297° West  Level Estimated
02:10AM 56.2658 86.3023 297° West  Level Estimated
02:11AM 56.3195 86.1069 296° West  Level Estimated
02:12AM 56.3730 85.9111 296° West  Level Estimated
02:13AM 56.4261 85.7147 296° West  Level Estimated
02:14AM 56.4789 85.5177 296° West  Level Estimated
02:15AM 56.5314 85.3202 296° West  Level Estimated
02:16AM 56.5835 85.1221 296° West  Level Estimated
02:16AM 56.3520 88.7980 295° West 425 489 38,000  Level FlightAware
02:17AM 56.6354 84.9235 295° West  Level Estimated
02:17AM 56.3790 88.6650 290° West 424 488 38,000  Level FlightAware
02:17AM 56.4100 88.5170 291° West 425 489 38,000  Level FlightAware
02:18AM 56.4370 88.3860 290° West 427 491 38,000  Level FlightAware
02:19AM 56.4650 88.2540 291° West 427 491 38,000  Level FlightAware
02:20AM 56.4980 88.0940 291° West 426 490 38,000  Level FlightAware
02:20AM 56.5240 87.9660 290° West 427 491 38,000  Level FlightAware
02:21AM 56.5540 87.8190 290° West 427 491 38,000  Level FlightAware
02:22AM 56.5820 87.6830 291° West 426 490 38,000  Level FlightAware
02:22AM 56.6090 87.5490 290° West 427 491 38,000  Level FlightAware
02:23AM 56.6390 87.3980 290° West 427 491 38,000  Level FlightAware
02:24AM 56.6650 87.2660 290° West 428 493 38,000  Level FlightAware
02:24AM 56.6850 87.1610 289° West 429 494 38,000  Level FlightAware
02:25AM 56.7120 87.0250 290° West 427 491 38,000  Level FlightAware
02:26AM 56.7410 86.8740 289° West 427 491 38,000  Level FlightAware
02:26AM 56.7670 86.7410 290° West 428 493 38,000  Level FlightAware
02:27AM 56.7940 86.6000 289° West 428 493 38,000  Level FlightAware
02:28AM 56.8230 86.4470 289° West 429 494 38,000  Level FlightAware
02:28AM 56.8490 86.3090 289° West 427 491 38,000  Level FlightAware
02:29AM 56.8780 86.1540 289° West 427 491 38,000  Level FlightAware
02:30AM 56.9030 86.0180 289° West 428 493 38,000  Level FlightAware
02:30AM 56.9280 85.8820 289° West 428 493 38,000  Level FlightAware
02:31AM 56.9570 85.7270 289° West 430 495 38,000  Level FlightAware
02:32AM 56.9820 85.5870 288° West 430 495 38,000  Level FlightAware
02:33AM 57.0060 85.4530 288° West 431 496 38,000  Level FlightAware
02:33AM 57.0340 85.2980 288° West 430 495 38,000  Level FlightAware
02:34AM 57.0590 85.1580 288° West 431 496 38,000  Level FlightAware
02:35AM 57.0850 85.0070 288° West 430 495 38,000  Level FlightAware
02:35AM 57.1100 84.8640 288° West 430 495 38,000  Level FlightAware
02:36AM 57.1400 84.7080 290° West 432 497 38,000  Level FlightAware
02:37AM 57.1740 84.5760 295° West 433 498 38,000  Level FlightAware
02:37AM 57.2050 84.4520 295° West 433 498 38,000  Level FlightAware
02:38AM 57.2340 84.3380 295° West 433 498 38,000  Level FlightAware
02:39AM 57.2800 84.1590 295° West 434 499 38,000  Level FlightAware
02:40AM 57.3080 84.0480 295° West 434 499 38,000  Level FlightAware
02:41AM 57.3710 83.7960 295° West 431 496 38,000  Level FlightAware
02:42AM 57.4190 83.6020 295° West 432 497 38,000  Level FlightAware
02:42AM 57.4570 83.4460 294° West 434 499 38,000  Level FlightAware
02:45AM 57.5549 83.0259 294° West  Level Estimated
02:45AM 57.5640 83.0040 294° West 432 497 38,000  Level FlightAware
02:45AM 57.6050 82.8340 294° West 433 498 38,000  Level FlightAware
02:46AM 57.6290 82.7310 294° West 434 499 38,000  Level FlightAware
02:47AM 57.6670 82.5700 294° West 435 501 38,000  Level FlightAware
02:47AM 57.6980 82.4370 294° West 435 501 38,000  Level FlightAware
02:48AM 57.7400 82.2620 294° West 436 502 38,000  Level FlightAware
02:49AM 57.7680 82.1450 294° West 436 502 38,000  Level FlightAware
02:50AM 57.7960 82.0270 294° West 436 502 38,000  Level FlightAware
02:50AM 57.8230 81.9090 293° West 436 502 38,000  Level FlightAware
02:51AM 57.8510 81.7920 294° West 436 502 38,000  Level FlightAware
02:52AM 57.8860 81.6440 294° West 436 502 38,000  Level FlightAware
02:52AM 57.9140 81.5260 294° West 436 502 38,000  Level FlightAware
02:53AM 57.9420 81.4080 294° West 436 502 38,000  Level FlightAware
02:54AM 57.9700 81.2900 294° West 436 502 38,000  Level FlightAware
02:54AM 57.9980 81.1720 294° West 436 502 38,000  Level FlightAware
02:55AM 58.0330 81.0240 294° West 436 502 38,000  Level FlightAware
02:56AM 58.0610 80.9060 294° West 436 502 38,000  Level FlightAware
02:57AM 58.0880 80.7870 293° West 436 502 38,000  Level FlightAware
02:57AM 58.1160 80.6690 294° West 436 502 38,000  Level FlightAware
03:00AM 58.2114 80.1980 291° West  Level Estimated
03:01AM 58.2543 79.9831 291° West  Level Estimated
03:02AM 58.2967 79.7676 291° West  Level Estimated
03:03AM 58.3388 79.5517 290° West  Level Estimated
03:04AM 58.3805 79.3352 290° West  Level Estimated
03:05AM 58.4219 79.1182 290° West  Level Estimated
03:06AM 58.4629 78.9007 290° West  Level Estimated
03:07AM 58.5035 78.6827 290° West  Level Estimated
03:08AM 58.5437 78.4642 290° West  Level Estimated
03:09AM 58.5836 78.2452 289° West  Level Estimated
03:10AM 58.6231 78.0257 289° West  Level Estimated
03:11AM 58.6623 77.8057 289° West  Level Estimated
03:12AM 58.7010 77.5853 289° West  Level Estimated
03:13AM 58.7394 77.3643 289° West  Level Estimated
03:14AM 58.7774 77.1428 288° West  Level Estimated
03:15AM 58.8150 76.9209 288° West  Level Estimated
03:16AM 58.8522 76.6985 288° West  Level Estimated
03:17AM 58.8891 76.4756 288° West  Level Estimated
03:18AM 58.9256 76.2522 288° West  Level Estimated
03:19AM 58.9616 76.0284 287° West  Level Estimated
03:20AM 58.9973 75.8041 287° West  Level Estimated
03:21AM 59.0326 75.5793 287° West  Level Estimated
03:22AM 59.0676 75.3541 287° West  Level Estimated
03:22AM 59.2510 74.9690 287° West 452 520 38,000  Level FlightAware
03:22AM 59.2810 74.8040 290° West 452 520 38,000  Level FlightAware
03:23AM 59.3080 74.6470 289° West 453 521 38,000  Level FlightAware
03:24AM 59.3370 74.4760 288° West 456 525 38,000  Level FlightAware
03:24AM 59.3540 74.3310 283° West 456 525 38,000  Level FlightAware
03:25AM 59.3750 74.1520 283° West 455 524 38,000  Level FlightAware
03:26AM 59.3920 74.0090 283° West 454 522 38,000  Level FlightAware
03:26AM 59.4100 73.8530 283° West 455 524 38,000  Level FlightAware
03:27AM 59.4330 73.6480 283° West 457 526 38,000  Level FlightAware
03:28AM 59.4520 73.4800 283° West 458 527 38,000  Level FlightAware
03:29AM 59.4710 73.3100 282° West 457 526 38,000  Level FlightAware
03:29AM 59.4900 73.1420 283° West 457 526 38,000  Level FlightAware
03:30AM 59.5100 72.9590 282° West 456 525 38,000  Level FlightAware
03:31AM 59.5270 72.7940 282° West 456 525 38,000  Level FlightAware
03:31AM 59.5460 72.6170 282° West 456 525 38,000  Level FlightAware
03:32AM 59.5620 72.4630 282° West 457 526 38,000  Level FlightAware
03:33AM 59.5730 72.3600 282° West 458 527 38,000  Level FlightAware
03:34AM 59.5980 72.1080 281° West 458 527 38,000  Level FlightAware
03:34AM 59.6120 71.9690 281° West 458 527 38,000  Level FlightAware
03:35AM 59.6300 71.7890 281° West 458 527 38,000  Level FlightAware
03:36AM 59.6480 71.6090 281° West 458 527 38,000  Level FlightAware
03:36AM 59.6630 71.4400 280° West 460 529 38,000  Level FlightAware
03:37AM 59.6810 71.2520 281° West 458 527 38,000  Level FlightAware
03:38AM 59.7010 71.0380 281° West 459 528 38,000  Level FlightAware
03:39AM 59.7170 70.8600 280° West 458 527 38,000  Level FlightAware
03:39AM 59.7300 70.7150 280° West 458 527 38,000  Level FlightAware
03:40AM 59.7510 70.4690 280° West 458 527 38,000  Level FlightAware
03:41AM 59.7620 70.3280 279° West 458 527 38,000  Level FlightAware
03:42AM 59.7760 70.1510 279° West 458 527 38,000  Level FlightAware
03:42AM 59.7880 70.0100 280° West 458 527 38,000  Level FlightAware
03:43AM 59.7990 69.8690 279° West 458 527 38,000  Level FlightAware
03:44AM 59.8100 69.7270 279° West 458 527 38,000  Level FlightAware
03:44AM 59.8210 69.5860 279° West 458 527 38,000  Level FlightAware
03:47AM 59.8724 69.0825 282° West  Level Estimated
03:48AM 59.8958 68.8459 281° West  Level Estimated
03:49AM 59.9188 68.6090 281° West  Level Estimated
03:50AM 59.9413 68.3718 281° West  Level Estimated
03:51AM 59.9635 68.1343 281° West  Level Estimated
03:52AM 59.9852 67.8964 280° West  Level Estimated
03:53AM 60.0064 67.6583 280° West  Level Estimated
03:54AM 60.0273 67.4198 280° West  Level Estimated
03:55AM 60.0477 67.1811 280° West  Level Estimated
03:56AM 60.0677 66.9420 280° West  Level Estimated
03:57AM 60.0873 66.7027 279° West  Level Estimated
03:58AM 60.1064 66.4630 279° West  Level Estimated
03:59AM 60.1251 66.2232 279° West  Level Estimated
04:00AM 60.1433 65.9830 279° West  Level Estimated
04:01AM 60.1612 65.7426 279° West  Level Estimated
04:02AM 60.1785 65.5019 278° West  Level Estimated
04:03AM 60.1955 65.2609 278° West  Level Estimated
04:04AM 60.2120 65.0198 278° West  Level Estimated
04:05AM 60.2281 64.7783 278° West  Level Estimated
04:06AM 60.2437 64.5367 278° West  Level Estimated
04:07AM 60.2589 64.2948 277° West  Level Estimated
04:08AM 60.2737 64.0527 277° West  Level Estimated
04:09AM 60.2880 63.8104 277° West  Level Estimated
04:10AM 60.3018 63.5678 277° West  Level Estimated
04:11AM 60.3153 63.3251 276° West  Level Estimated
04:12AM 60.3283 63.0822 276° West  Level Estimated
04:13AM 60.3408 62.8391 276° West  Level Estimated
04:14AM 60.3529 62.5957 276° West  Level Estimated
04:15AM 60.3646 62.3523 276° West  Level Estimated
04:16AM 60.3758 62.1086 275° West  Level Estimated
04:17AM 60.3865 61.8648 275° West  Level Estimated
04:18AM 60.3969 61.6208 275° West  Level Estimated
04:18AM 60.1330 60.6510 275° West 477 549 38,000  Level FlightAware
04:19AM 60.4067 61.3767 275° West  Level Estimated
04:19AM 60.1300 60.4350 268° West 479 551 38,000  Level FlightAware
04:20AM 60.1280 60.2830 269° West 479 551 38,000  Level FlightAware
04:20AM 60.1250 60.1180 268° West 477 549 38,000  Level FlightAware
04:21AM 60.1220 59.8930 269° West 475 547 38,000  Level FlightAware
04:22AM 60.1180 59.6830 268° West 474 545 38,000  Level FlightAware
04:23AM 60.1150 59.5290 268° West 473 544 38,000  Level FlightAware
04:23AM 60.1110 59.3280 268° West 475 547 38,000  Level FlightAware
04:24AM 60.1070 59.1920 267° West 477 549 38,000  Level FlightAware
04:25AM 60.1030 58.9870 268° West 476 548 38,000  Level FlightAware
04:25AM 60.0970 58.7790 267° West 475 547 38,000  Level FlightAware
04:26AM 60.0930 58.6060 267° West 473 544 38,000  Level FlightAware
04:27AM 60.0880 58.4210 267° West 475 547 38,000  Level FlightAware
04:28AM 60.0790 58.1600 266° West 480 552 38,000  Level FlightAware
04:29AM 60.0720 57.9320 267° West 480 552 38,000  Level FlightAware
04:29AM 60.0640 57.7320 266° West 479 551 38,000  Level FlightAware
04:30AM 60.0580 57.5530 266° West 478 550 38,000  Level FlightAware
04:31AM 60.0510 57.3560 266° West 478 550 38,000  Level FlightAware
04:31AM 60.0460 57.2150 266° West 479 551 38,000  Level FlightAware
04:32AM 60.0370 56.9860 266° West 481 554 38,000  Level FlightAware
04:33AM 60.0300 56.8130 265° West 479 551 38,000  Level FlightAware
04:34AM 60.0210 56.6030 265° West 479 551 38,000  Level FlightAware
04:34AM 60.0140 56.4320 265° West 479 551 38,000  Level FlightAware
04:35AM 60.0060 56.2400 265° West 479 551 38,000  Level FlightAware
04:36AM 59.9980 56.0840 264° West 480 552 38,000  Level FlightAware
04:36AM 59.9890 55.8920 265° West 478 550 38,000  Level FlightAware
04:37AM 59.9770 55.6410 265° West 480 552 38,000  Level FlightAware
04:38AM 59.9690 55.4740 265° West 480 552 38,000  Level FlightAware
04:39AM 59.9550 55.2120 264° West 479 551 38,000  Level FlightAware
04:39AM 59.9470 55.0680 264° West 479 551 38,000  Level FlightAware
04:40AM 59.9350 54.8370 264° West 480 552 38,000  Level FlightAware
04:41AM 59.9240 54.6530 263° West 478 550 38,000  Level FlightAware
04:42AM 59.9130 54.4670 263° West 476 548 38,000  Level FlightAware
04:42AM 59.9030 54.2920 264° West 477 549 38,000  Level FlightAware
04:43AM 59.8920 54.1200 263° West 478 550 38,000  Level FlightAware
04:44AM 59.8790 53.9100 263° West 478 550 38,000  Level FlightAware
04:44AM 59.8680 53.7400 263° West 477 549 38,000  Level FlightAware
04:45AM 59.8580 53.5730 263° West 479 551 38,000  Level FlightAware
04:46AM 59.8450 53.3850 262° West 481 554 38,000  Level FlightAware
04:46AM 59.8350 53.2370 262° West 482 555 38,000  Level FlightAware
04:47AM 59.8200 53.0220 262° West 479 551 38,000  Level FlightAware
04:48AM 59.8070 52.8360 262° West 479 551 38,000  Level FlightAware
04:49AM 59.7930 52.6450 262° West 480 552 38,000  Level FlightAware
04:49AM 59.7810 52.4870 261° West 481 554 38,000  Level FlightAware
04:50AM 59.7670 52.2980 262° West 482 555 38,000  Level FlightAware
04:51AM 59.7520 52.0990 262° West 484 557 38,000  Level FlightAware
04:51AM 59.7370 51.9300 260° West 486 559 38,000  Level FlightAware
04:52AM 59.7170 51.7450 258° West 485 558 38,000  Level FlightAware
04:53AM 59.6990 51.5760 258° West 484 557 38,000  Level FlightAware
04:54AM 59.6760 51.3540 258° West 483 556 38,000  Level FlightAware
04:54AM 59.6580 51.1810 258° West 485 558 38,000  Level FlightAware
04:55AM 59.6420 51.0280 258° West 486 559 38,000  Level FlightAware
04:56AM 59.6130 50.7650 258° West 487 560 38,000  Level FlightAware
04:57AM 59.5920 50.5760 258° West 488 562 38,000  Level FlightAware
04:57AM 59.5750 50.4240 258° West 489 563 38,000  Level FlightAware
04:58AM 59.5530 50.2230 258° West 490 564 38,000  Level FlightAware
04:59AM 59.5320 50.0480 257° West 488 562 38,000  Level FlightAware
04:59AM 59.5130 49.8840 257° West 487 560 38,000  Level FlightAware
05:00AM 59.4910 49.6980 257° West 487 560 38,000  Level FlightAware
05:01AM 59.4740 49.5510 257° West 487 560 38,000  Level FlightAware
05:01AM 59.4570 49.4040 257° West 487 560 38,000  Level FlightAware
05:02AM 59.4400 49.2570 257° West 487 560 38,000  Level FlightAware
05:03AM 59.4180 49.0740 257° West 487 560 38,000  Level FlightAware
05:04AM 59.4010 48.9270 257° West 487 560 38,000  Level FlightAware
05:04AM 59.3840 48.7800 257° West 487 560 38,000  Level FlightAware
05:05AM 59.3660 48.6340 256° West 487 560 38,000  Level FlightAware
05:06AM 59.3450 48.4510 257° West 487 560 38,000  Level FlightAware
05:06AM 59.3270 48.3040 257° West 487 560 38,000  Level FlightAware
05:07AM 59.3100 48.1580 257° West 487 560 38,000  Level FlightAware
05:08AM 59.2930 48.0120 257° West 487 560 38,000  Level FlightAware
05:08AM 59.2760 47.8660 257° West 487 560 38,000  Level FlightAware
05:09AM 59.2590 47.7200 257° West 487 560 38,000  Level FlightAware
05:12AM 59.2321 47.1586 265° West  Level Estimated
05:13AM 59.2201 46.9233 264° West  Level Estimated
05:13AM 59.0500 46.3800 264° West 493 567 38,000  Level FlightAware
05:14AM 59.0190 46.1690 254° West 492 566 38,000  Level FlightAware
05:14AM 58.9930 45.9980 254° West 492 566 38,000  Level FlightAware
05:15AM 58.9720 45.8650 253° West 492 566 38,000  Level FlightAware
05:16AM 58.9930 45.9980 73° East 38,000  Level FlightAware
05:16AM 58.9320 45.6000 254° West 493 567 38,000  Level FlightAware
05:17AM 58.9030 45.4090 254° West 495 570 38,000  Level FlightAware
05:18AM 58.8710 45.2100 253° West 496 571 38,000  Level FlightAware
05:18AM 58.8390 45.0080 253° West 498 573 38,000  Level FlightAware
05:19AM 58.8110 44.8340 253° West 497 572 38,000  Level FlightAware
05:20AM 58.7820 44.6560 253° West 500 575 38,000  Level FlightAware
05:20AM 58.7540 44.4870 252° West 500 575 38,000  Level FlightAware
05:21AM 58.7290 44.3430 252° West 500 575 38,000  Level FlightAware
05:22AM 58.7050 44.1990 252° West 500 575 38,000  Level FlightAware
05:22AM 58.6810 44.0550 252° West 500 575 38,000  Level FlightAware
05:23AM 58.6560 43.9110 252° West 500 575 38,000  Level FlightAware
05:24AM 58.5970 43.5540 253° West 512 589 38,000  Level FlightAware
05:25AM 58.5670 43.3820 252° West 511 588 38,000  Level FlightAware
05:25AM 58.5330 43.1880 252° West 511 588 38,000  Level FlightAware
05:26AM 58.5020 43.0150 251° West 512 589 38,000  Level FlightAware
05:27AM 58.4720 42.8470 251° West 511 588 38,000  Level FlightAware
05:27AM 58.4410 42.6760 251° West 510 587 38,000  Level FlightAware
05:28AM 58.4080 42.4970 251° West 510 587 38,000  Level FlightAware
05:29AM 58.3760 42.3210 251° West 509 586 38,000  Level FlightAware
05:30AM 58.3400 42.1300 250° West 507 583 38,000  Level FlightAware
05:30AM 58.3090 41.9620 251° West 505 581 38,000  Level FlightAware
05:31AM 58.2730 41.7750 250° West 504 580 38,000  Level FlightAware
05:32AM 58.2400 41.6040 250° West 501 577 38,000  Level FlightAware
05:32AM 58.2050 41.4200 250° West 499 574 38,000  Level FlightAware
05:33AM 58.1730 41.2560 250° West 499 574 38,000  Level FlightAware
05:34AM 58.1400 41.0910 249° West 499 574 38,000  Level FlightAware
05:34AM 58.1040 40.9040 250° West 501 577 38,000  Level FlightAware
05:35AM 58.0710 40.7410 249° West 500 575 38,000  Level FlightAware
05:36AM 58.0430 40.6030 249° West 499 574 38,000  Level FlightAware
05:37AM 58.0020 40.4010 249° West 497 572 38,000  Level FlightAware
05:37AM 57.9690 40.2380 249° West 497 572 38,000  Level FlightAware
05:38AM 57.9310 40.0560 249° West 498 573 38,000  Level FlightAware
05:39AM 57.8990 39.8990 249° West 497 572 38,000  Level FlightAware
05:39AM 57.8600 39.7150 248° West 498 573 38,000  Level FlightAware
05:40AM 57.8300 39.5750 248° West 497 572 38,000  Level FlightAware
05:41AM 57.7940 39.4070 248° West 500 575 38,000  Level FlightAware
05:41AM 57.7410 39.2250 241° Southwest 510 587 38,000  Level FlightAware
05:42AM 57.6840 39.0820 233° Southwest 517 595 38,000  Level FlightAware
05:43AM 57.6190 38.9260 232° Southwest 516 594 38,000  Level FlightAware
05:44AM 57.5610 38.7880 232° Southwest 517 595 38,000  Level FlightAware
05:44AM 57.5000 38.6440 232° Southwest 519 597 38,000  Level FlightAware
05:45AM 57.4340 38.4880 232° Southwest 521 600 38,000  Level FlightAware
05:46AM 57.3740 38.3480 232° Southwest 521 600 38,000  Level FlightAware
05:46AM 57.3090 38.1950 232° Southwest 521 600 38,000  Level FlightAware
05:47AM 57.2490 38.0510 232° Southwest 520 598 38,000  Level FlightAware
05:48AM 57.1900 37.9070 233° Southwest 522 601 38,000  Level FlightAware
05:48AM 57.1280 37.7460 235° Southwest 516 594 38,000  Level FlightAware
05:49AM 57.0870 37.6000 243° Southwest 508 585 38,000  Level FlightAware
05:50AM 57.0510 37.4320 249° West 506 582 38,000  Level FlightAware
05:51AM 57.0140 37.2550 249° West 507 583 38,000  Level FlightAware
05:51AM 56.9800 37.0930 249° West 508 585 38,000  Level FlightAware
05:52AM 56.9420 36.9110 249° West 510 587 38,000  Level FlightAware
05:53AM 56.9090 36.7510 249° West 509 586 38,000  Level FlightAware
05:53AM 56.8740 36.5900 248° West 509 586 38,000  Level FlightAware
05:54AM 56.8360 36.4110 249° West 509 586 38,000  Level FlightAware
05:55AM 56.8040 36.2530 250° West 509 586 38,000  Level FlightAware
05:55AM 56.7660 36.0750 249° West 508 585 38,000  Level FlightAware
05:56AM 56.7310 35.9110 249° West 507 583 38,000  Level FlightAware
05:57AM 56.6980 35.7560 249° West 511 588 38,000  Level FlightAware
05:58AM 56.6580 35.5730 248° West 510 587 38,000  Level FlightAware
05:58AM 56.6250 35.4210 249° West 510 587 38,000  Level FlightAware
05:59AM 56.5880 35.2530 248° West 511 588 38,000  Level FlightAware
06:00AM 56.5490 35.0760 248° West 512 589 38,000  Level FlightAware
06:00AM 56.5110 34.9180 247° West 517 595 38,000  Level FlightAware
06:01AM 56.4580 34.7500 240° Southwest 522 601 38,000  Level FlightAware
06:02AM 56.4100 34.5990 240° Southwest 520 598 38,000  Level FlightAware
06:02AM 56.3560 34.4310 240° Southwest 522 601 38,000  Level FlightAware
06:03AM 56.3080 34.2830 240° Southwest 522 601 38,000  Level FlightAware
06:04AM 56.2580 34.1310 239° Southwest 523 602 38,000  Level FlightAware
06:05AM 56.2020 33.9630 239° Southwest 523 602 38,000  Level FlightAware
06:05AM 56.1530 33.8190 239° Southwest 523 602 38,000  Level FlightAware
06:06AM 56.0960 33.6480 239° Southwest 522 601 38,000  Level FlightAware
06:07AM 56.0460 33.5020 239° Southwest 522 601 38,000  Level FlightAware
06:07AM 55.9980 33.3610 239° Southwest 522 601 38,000  Level FlightAware
06:08AM 55.9410 33.1920 239° Southwest 521 600 38,000  Level FlightAware
06:09AM 55.8920 33.0430 240° Southwest 521 600 38,000  Level FlightAware
06:09AM 55.8540 32.8850 247° West 519 597 38,000  Level FlightAware
06:10AM 55.8260 32.7210 253° West 517 595 38,000  Level FlightAware
06:12AM 55.7730 32.3120 257° West 516 594 38,000  Level FlightAware
06:12AM 55.7490 32.1330 257° West 516 594 38,000  Level FlightAware
06:13AM 55.7220 31.9360 256° West 516 594 38,000  Level FlightAware
06:14AM 55.7020 31.7960 256° West 516 594 38,000  Level FlightAware
06:15AM 55.6830 31.6570 256° West 516 594 38,000  Level FlightAware
06:15AM 55.6580 31.4820 256° West 516 594 38,000  Level FlightAware
06:16AM 55.6390 31.3430 256° West 516 594 38,000  Level FlightAware
06:17AM 55.6190 31.2030 256° West 516 594 38,000  Level FlightAware
06:18AM 55.5940 31.0290 256° West 516 594 38,000  Level FlightAware
06:18AM 55.5750 30.8900 256° West 516 594 38,000  Level FlightAware
06:19AM 55.5550 30.7500 256° West 516 594 38,000  Level FlightAware
06:20AM 55.5350 30.6110 256° West 516 594 38,000  Level FlightAware
06:20AM 55.4740 30.2480 254° West 504 580 38,000  Level FlightAware
06:21AM 55.4440 30.0460 255° West 504 580 38,000  Level FlightAware
06:22AM 55.4210 29.8970 255° West 504 580 38,000  Level FlightAware
06:23AM 55.3910 29.7080 254° West 504 580 38,000  Level FlightAware
06:23AM 55.3660 29.5510 254° West 503 579 38,000  Level FlightAware
06:24AM 55.3380 29.3750 254° West 503 579 38,000  Level FlightAware
06:25AM 55.3130 29.2190 254° West 503 579 38,000  Level FlightAware
06:25AM 55.2880 29.0620 254° West 504 580 38,000  Level FlightAware
06:26AM 55.2580 28.8850 254° West 502 578 38,000  Level FlightAware
06:27AM 55.2230 28.6750 254° West 501 577 38,000  Level FlightAware
06:28AM 55.1970 28.5190 254° West 501 577 38,000  Level FlightAware
06:28AM 55.1710 28.3640 254° West 502 578 38,000  Level FlightAware
06:29AM 55.1410 28.1880 253° West 500 575 38,000  Level FlightAware
06:30AM 55.1140 28.0320 253° West 498 573 38,000  Level FlightAware
06:30AM 55.0850 27.8620 253° West 498 573 38,000  Level FlightAware
06:31AM 55.0580 27.7090 253° West 499 574 38,000  Level FlightAware
06:32AM 55.0270 27.5330 253° West 506 582 38,000  Level FlightAware
06:33AM 55.0000 27.3820 253° West 511 588 38,000  Level FlightAware
06:33AM 54.9720 27.2250 253° West 511 588 38,000  Level FlightAware
06:34AM 54.9420 27.0630 252° West 512 589 38,000  Level FlightAware
06:35AM 54.9110 26.8920 253° West 515 593 38,000  Level FlightAware
06:35AM 54.8820 26.7330 252° West 515 593 38,000  Level FlightAware
06:36AM 54.8480 26.5510 252° West 512 589 38,000  Level FlightAware
06:37AM 54.8190 26.3990 252° West 512 589 38,000  Level FlightAware
06:37AM 54.7860 26.2270 252° West 511 588 38,000  Level FlightAware
06:38AM 54.7570 26.0710 252° West 510 587 38,000  Level FlightAware
06:39AM 54.7240 25.9010 251° West 508 585 38,000  Level FlightAware
06:40AM 54.6930 25.7420 251° West 505 581 38,000  Level FlightAware
06:40AM 54.6590 25.5730 251° West 507 583 38,000  Level FlightAware
06:41AM 54.6270 25.4190 250° West 509 586 38,000  Level FlightAware
06:42AM 54.5970 25.2720 251° West 510 587 38,000  Level FlightAware
06:42AM 54.5610 25.0970 251° West 510 587 38,000  Level FlightAware
06:43AM 54.5280 24.9410 250° West 510 587 38,000  Level FlightAware
06:44AM 54.4930 24.7720 250° West 506 582 38,000  Level FlightAware
06:44AM 54.4620 24.6250 250° West 505 581 38,000  Level FlightAware
06:45AM 54.4350 24.5010 250° West 505 581 38,000  Level FlightAware
06:46AM 54.3970 24.3210 250° West 506 582 38,000  Level FlightAware
06:47AM 54.3590 24.1500 249° West 505 581 38,000  Level FlightAware
06:47AM 54.3230 23.9850 250° West 507 583 38,000  Level FlightAware
06:48AM 54.2970 23.8650 250° West 505 581 38,000  Level FlightAware
06:49AM 54.2570 23.6830 249° West 507 583 38,000  Level FlightAware
06:49AM 54.2200 23.5190 249° West 507 583 38,000  Level FlightAware
06:50AM 54.1870 23.3730 249° West 507 583 38,000  Level FlightAware
06:51AM 54.1550 23.2240 250° West 504 580 38,000  Level FlightAware
06:51AM 54.1220 23.0530 252° West 502 578 38,000  Level FlightAware
06:52AM 54.0910 22.8990 251° West 500 575 38,000  Level FlightAware
06:53AM 54.0580 22.7390 251° West 502 578 38,000  Level FlightAware
06:54AM 54.0270 22.5880 251° West 500 575 38,000  Level FlightAware
06:54AM 53.9960 22.4400 250° West 498 573 38,000  Level FlightAware
06:55AM 53.9610 22.2730 250° West 495 570 38,000  Level FlightAware
06:56AM 53.9290 22.1240 250° West 495 570 38,000  Level FlightAware
06:56AM 53.8950 21.9650 250° West 494 568 38,000  Level FlightAware
06:57AM 53.8640 21.8210 250° West 493 567 38,000  Level FlightAware
06:58AM 53.8280 21.6530 250° West 492 566 38,000  Level FlightAware
06:58AM 53.7960 21.5090 249° West 492 566 38,000  Level FlightAware
06:59AM 53.7610 21.3500 250° West 492 566 38,000  Level FlightAware
07:00AM 53.7290 21.2040 250° West 493 567 38,000  Level FlightAware
07:01AM 53.6970 21.0630 249° West 493 567 38,000  Level FlightAware
07:01AM 53.6600 20.8970 249° West 492 566 38,000  Level FlightAware
07:02AM 53.6270 20.7540 249° West 491 565 38,000  Level FlightAware
07:03AM 53.5920 20.5990 249° West 491 565 38,000  Level FlightAware
07:03AM 53.5590 20.4570 249° West 492 566 38,000  Level FlightAware
07:04AM 53.5260 20.3130 249° West 489 563 38,000  Level FlightAware
07:05AM 53.4900 20.1580 249° West 486 559 38,000  Level FlightAware
07:05AM 53.4560 20.0140 248° West 484 557 38,000  Level FlightAware
07:06AM 53.4200 19.8610 249° West 483 556 38,000  Level FlightAware
07:07AM 53.3870 19.7230 248° West 481 554 38,000  Level FlightAware
07:08AM 53.3540 19.5850 248° West 478 550 38,000  Level FlightAware
07:08AM 53.3170 19.4330 248° West 474 545 38,000  Level FlightAware
07:09AM 53.2830 19.2930 248° West 471 542 38,000  Level FlightAware
07:10AM 53.2470 19.1450 248° West 470 541 38,000  Level FlightAware
07:10AM 53.2140 19.0100 248° West 471 542 38,000  Level FlightAware
07:11AM 53.1800 18.8750 247° West 472 543 38,000  Level FlightAware
07:12AM 53.1420 18.7230 247° West 472 543 38,000  Level FlightAware
07:12AM 53.1090 18.5900 248° West 470 541 38,000  Level FlightAware
07:13AM 53.0780 18.4650 248° West 468 539 38,000  Level FlightAware
07:14AM 53.0450 18.3350 247° West 466 536 38,000  Level FlightAware
07:15AM 53.0050 18.1800 247° West 463 533 38,000  Level FlightAware
07:15AM 52.9690 18.0380 247° West 461 531 38,000  Level FlightAware
07:16AM 52.9370 17.9150 247° West 461 531 38,000  Level FlightAware
07:17AM 52.9010 17.7790 246° West 461 531 38,000  Level FlightAware
07:17AM 52.8630 17.6310 247° West 462 532 38,000  Level FlightAware
07:18AM 52.8280 17.5010 246° West 462 532 38,000  Level FlightAware
07:19AM 52.7890 17.3520 247° West 459 528 38,000  Level FlightAware
07:19AM 52.7550 17.2240 246° West 458 527 38,000  Level FlightAware
07:20AM 52.7190 17.0890 246° West 457 526 38,000  Level FlightAware
07:21AM 52.6890 16.9780 246° West 456 525 38,000  Level FlightAware
07:22AM 52.6490 16.8330 246° West 453 521 38,000  Level FlightAware
07:22AM 52.6190 16.7210 246° West 452 520 38,000  Level FlightAware
07:23AM 52.5760 16.5650 246° West 452 520 38,000  Level FlightAware
07:24AM 52.5420 16.4400 246° West 452 520 38,000  Level FlightAware
07:24AM 52.5020 16.2960 246° West 450 518 38,000  Level FlightAware
07:25AM 52.4680 16.1760 245° Southwest 448 516 38,000  Level FlightAware
07:26AM 52.4290 16.0380 245° Southwest 449 517 38,000  Level FlightAware
07:26AM 52.3940 15.9140 245° Southwest 448 516 38,000  Level FlightAware
07:27AM 52.3600 15.7910 246° West 449 517 38,000  Level FlightAware
07:28AM 52.3190 15.6500 245° Southwest 449 517 38,000  Level FlightAware
07:29AM 52.2810 15.5170 245° Southwest 448 516 38,000  Level FlightAware
07:29AM 52.2490 15.4040 245° Southwest 447 514 38,000  Level FlightAware
07:30AM 52.2110 15.2760 244° Southwest 445 512 38,000  Level FlightAware
07:31AM 52.1730 15.1430 245° Southwest 445 512 38,000  Level FlightAware
07:31AM 52.1360 15.0190 244° Southwest 445 512 38,000  Level FlightAware
07:32AM 52.1060 14.9160 245° Southwest 445 512 38,000  Level FlightAware
07:33AM 52.0630 14.7700 244° Southwest 445 512 38,000  Level FlightAware
07:33AM 52.0270 14.6420 245° Southwest 443 510 38,000  Level FlightAware
07:34AM 51.9910 14.5070 247° West 442 509 38,000  Level FlightAware
07:35AM 51.9570 14.3850 246° West 441 507 38,000  Level FlightAware
07:36AM 51.9230 14.2630 246° West 440 506 38,000  Level FlightAware
07:36AM 51.8850 14.1230 246° West 438 504 38,000  Level FlightAware
07:37AM 51.8510 14.0040 245° Southwest 437 503 38,000  Level FlightAware
07:38AM 51.8180 13.8850 246° West 438 504 38,000  Level FlightAware
07:38AM 51.7800 13.7510 245° Southwest 437 503 38,000  Level FlightAware
07:39AM 51.7470 13.6340 246° West 435 501 38,000  Level FlightAware
07:40AM 51.7090 13.5040 245° Southwest 431 496 38,000 -120 Level FlightAware
07:40AM 51.6760 13.3860 246° West 431 496 37,900 -660 Descending FlightAware
07:41AM 51.6380 13.2560 245° Southwest 439 505 37,100 -1,080 Descending FlightAware
07:42AM 51.6040 13.1390 245° Southwest 436 502 36,400 -840 Descending FlightAware
07:43AM 51.5710 13.0250 245° Southwest 427 491 36,000 -300 Descending FlightAware
07:43AM 51.5390 12.9170 245° Southwest 429 494 36,000 -120 Level FlightAware
07:44AM 51.4990 12.7790 245° Southwest 431 496 35,900 -780 Descending FlightAware
07:45AM 51.4640 12.6610 245° Southwest 432 497 34,900 -1,560 Descending FlightAware
07:45AM 51.4250 12.5320 244° Southwest 436 502 33,700 -1,500 Descending FlightAware
07:46AM 51.3870 12.4300 239° Southwest 437 503 32,800 -1,560 Descending FlightAware
07:47AM 51.3400 12.2970 241° Southwest 437 503 31,500 -1,680 Descending FlightAware
07:47AM 51.3060 12.2050 239° Southwest 431 496 30,600 -1,080 Descending FlightAware
07:48AM 51.2550 12.0670 239° Southwest 424 488 30,000 -420 Descending FlightAware
07:49AM 51.2160 11.9610 240° Southwest 421 484 30,000  Level FlightAware
07:50AM 51.1790 11.8490 242° Southwest 425 489 30,000  Level FlightAware
07:50AM 51.1390 11.7250 243° Southwest 427 491 30,000 -360 Level FlightAware
07:51AM 51.1030 11.6150 243° Southwest 421 484 29,500 -1,200 Descending FlightAware
07:52AM 51.0620 11.4910 242° Southwest 412 474 28,300 -1,560 Descending FlightAware
07:52AM 51.0260 11.3820 242° Southwest 411 473 27,300 -1,620 Descending FlightAware
07:53AM 50.9920 11.2790 242° Southwest 398 458 26,200 -1,380 Descending FlightAware
07:54AM 50.9540 11.1640 242° Southwest 390 449 25,400 -900 Descending FlightAware
07:54AM 50.9220 11.0660 243° Southwest 394 453 25,000 -300 Descending FlightAware
07:55AM 50.8820 10.9470 242° Southwest 394 453 25,000  Level FlightAware
07:56AM 50.8470 10.8440 242° Southwest 393 452 25,000 -120 Level FlightAware
07:57AM 50.8130 10.7450 242° Southwest 394 453 24,900 -660 Descending FlightAware
07:57AM 50.7750 10.6340 242° Southwest 389 448 24,100 -1,200 Descending FlightAware
07:58AM 50.7500 10.5610 242° Southwest 384 442 23,400 -1,740 Descending FlightAware
07:59AM 50.7060 10.4350 241° Southwest 386 444 21,800 -1,980 Descending FlightAware
07:59AM 50.6680 10.3250 241° Southwest 376 433 20,300 -1,980 Descending FlightAware
08:00AM 50.6360 10.2360 240° Southwest 369 425 19,000 -1,980 Descending FlightAware
08:01AM 50.6020 10.1380 241° Southwest 355 409 17,700 -1,800 Descending FlightAware
08:01AM 50.5760 10.0640 241° Southwest 357 411 16,800 -1,680 Descending FlightAware
08:02AM 50.5190 9.9030 241° Southwest 369 425 14,900 -1,740 Descending FlightAware
08:03AM 50.4820 9.8020 240° Southwest 363 418 13,700 -1,500 Descending FlightAware
08:04AM 50.4500 9.7100 241° Southwest 351 404 12,800 -1,200 Descending FlightAware
08:04AM 50.4200 9.6270 240° Southwest 346 398 12,100 -1,680 Descending FlightAware
08:05AM 50.3800 9.5290 237° Southwest 338 389 10,500 -1,980 Descending FlightAware
08:06AM 50.3600 9.4800 237° Southwest 341 392 9,800 -1,440 Descending FlightAware
08:06AM 50.3360 9.4220 237° Southwest 339 390 9,300 -1,080 Descending FlightAware
08:06AM 50.3240 9.3920 238° Southwest 338 389 9,100 -840 Descending FlightAware
08:09AM 50.1933 9.0156 242° Southwest  Level Estimated
08:10AM 50.1339 8.8465 241° Southwest  Level Estimated
08:11AM 50.0743 8.6778 241° Southwest  Level Estimated
08:11AM 50.1280 8.9270 241° Southwest 220 253 4,900  Level FlightAware
08:12AM 50.0264 8.5431 241° Southwest  Level Estimated
08:12AM 50.1120 8.8970 230° Southwest 197 227 4,800  Level FlightAware
08:13AM 50.0940 8.8140 251° West 185 213 3,300 -1,260 Descending FlightAware
08:14AM 50.0730 8.7250 250° West 178 205 2,000 -900 Descending FlightAware
08:15AM 50.0620 8.6790 250° West 157 181 1,500 -480 Descending FlightAware
08:15AM 50.0550 8.6500 249° West 153 176 1,400 -240 Descending FlightAware
08:18AM 50.0264 8.5431 247° West  Level Estimated
08:19AM 50.0264 8.5431 73° East  Level Estimated
08:20AM 50.0264 8.5431 73° East  Level Estimated
08:21AM 50.0264 8.5431 73° East  Level Estimated
08:22AM 50.0264 8.5431 73° East  Level Estimated